createdAt,value
2017-08-02T00:01:30.296Z,22.30
2017-08-02T00:03:58.354Z,22.30
2017-08-02T00:06:26.466Z,22.30
2017-08-02T00:08:54.538Z,22.30
2017-08-02T00:11:23.403Z,22.20
2017-08-02T00:13:51.466Z,22.20
2017-08-02T00:16:19.590Z,22.20
2017-08-02T00:18:48.422Z,22.20
2017-08-02T00:21:16.510Z,22.20
2017-08-02T00:23:44.586Z,22.30
2017-08-02T00:26:12.671Z,22.30
2017-08-02T00:28:40.743Z,22.30
2017-08-02T00:31:08.803Z,22.40
2017-08-02T00:33:36.878Z,22.40
2017-08-02T00:36:04.946Z,22.30
2017-08-02T00:38:33.018Z,22.30
2017-08-02T00:41:01.095Z,22.30
2017-08-02T00:43:29.175Z,22.30
2017-08-02T00:45:57.239Z,22.30
2017-08-02T00:48:25.315Z,22.30
2017-08-02T00:50:53.383Z,22.20
2017-08-02T00:53:21.459Z,22.20
2017-08-02T00:55:49.526Z,22.20
2017-08-02T00:58:17.603Z,22.10
2017-08-02T01:00:45.671Z,22.10
2017-08-02T01:03:13.743Z,22.00
2017-08-02T01:05:41.815Z,22.00
2017-08-02T01:08:09.897Z,21.90
2017-08-02T01:10:38.770Z,21.80
2017-08-02T01:13:06.839Z,21.80
2017-08-02T01:15:34.916Z,21.80
2017-08-02T01:18:02.977Z,21.80
2017-08-02T01:20:31.063Z,21.90
2017-08-02T01:22:59.131Z,21.90
2017-08-02T01:25:27.210Z,21.90
2017-08-02T01:27:55.276Z,21.90
2017-08-02T01:30:23.346Z,21.90
2017-08-02T01:32:51.435Z,21.90
2017-08-02T01:35:19.514Z,21.80
2017-08-02T01:37:47.578Z,21.80
2017-08-02T01:40:16.430Z,21.80
2017-08-02T01:42:44.830Z,21.80
2017-08-02T01:45:12.904Z,21.80
2017-08-02T01:47:40.970Z,21.80
2017-08-02T01:50:09.042Z,21.80
2017-08-02T01:52:37.120Z,21.80
2017-08-02T01:55:05.194Z,21.80
2017-08-02T01:57:33.279Z,21.80
2017-08-02T02:00:01.352Z,21.80
2017-08-02T02:02:29.426Z,21.70
2017-08-02T02:04:57.490Z,21.70
2017-08-02T02:07:25.582Z,21.60
2017-08-02T02:09:53.651Z,21.60
2017-08-02T02:12:21.734Z,21.60
2017-08-02T02:14:50.583Z,21.60
2017-08-02T02:17:18.659Z,21.60
2017-08-02T02:19:46.746Z,21.70
2017-08-02T02:22:14.818Z,21.60
2017-08-02T02:24:42.899Z,21.60
2017-08-02T02:27:10.978Z,21.60
2017-08-02T02:29:39.840Z,21.60
2017-08-02T02:32:07.919Z,21.60
2017-08-02T02:34:35.998Z,21.60
2017-08-02T02:37:04.069Z,21.60
2017-08-02T02:39:32.146Z,21.60
2017-08-02T02:42:00.232Z,21.50
2017-08-02T02:44:28.298Z,21.50
2017-08-02T02:46:56.374Z,21.50
2017-08-02T02:49:24.430Z,21.60
2017-08-02T02:51:52.511Z,21.60
2017-08-02T02:54:20.576Z,21.60
2017-08-02T02:56:48.655Z,21.60
2017-08-02T02:59:16.723Z,21.60
2017-08-02T03:01:44.811Z,21.60
2017-08-02T03:04:13.651Z,21.60
2017-08-02T03:06:41.735Z,21.60
2017-08-02T03:09:09.799Z,21.60
2017-08-02T03:11:37.862Z,21.60
2017-08-02T03:14:05.943Z,21.60
2017-08-02T03:16:34.007Z,21.60
2017-08-02T03:19:02.864Z,21.50
2017-08-02T03:21:30.934Z,21.60
2017-08-02T03:23:59.778Z,21.50
2017-08-02T03:26:27.850Z,21.50
2017-08-02T03:28:55.939Z,21.50
2017-08-02T03:31:24.019Z,21.50
2017-08-02T03:33:52.098Z,21.50
2017-08-02T03:36:20.163Z,21.50
2017-08-02T03:38:48.246Z,21.50
2017-08-02T03:41:16.328Z,21.50
2017-08-02T03:43:45.158Z,21.50
2017-08-02T03:46:13.299Z,21.50
2017-08-02T03:48:42.135Z,21.50
2017-08-02T03:51:10.211Z,21.50
2017-08-02T03:53:38.295Z,21.50
2017-08-02T03:56:06.363Z,21.40
2017-08-02T03:58:34.434Z,21.40
2017-08-02T04:01:02.518Z,21.40
2017-08-02T04:03:30.587Z,21.40
2017-08-02T04:05:58.654Z,21.40
2017-08-02T04:08:26.726Z,21.40
2017-08-02T04:10:54.798Z,21.40
2017-08-02T04:13:22.881Z,21.40
2017-08-02T04:15:50.961Z,21.40
2017-08-02T04:18:19.035Z,21.40
2017-08-02T04:20:47.099Z,21.30
2017-08-02T04:23:15.179Z,21.30
2017-08-02T04:25:43.259Z,21.30
2017-08-02T04:28:12.098Z,21.30
2017-08-02T04:30:40.944Z,21.30
2017-08-02T04:33:09.799Z,21.30
2017-08-02T04:35:37.872Z,21.30
2017-08-02T04:38:05.938Z,21.30
2017-08-02T04:40:34.019Z,21.30
2017-08-02T04:43:02.133Z,21.20
2017-08-02T04:45:30.978Z,21.20
2017-08-02T04:47:59.056Z,21.20
2017-08-02T04:50:27.131Z,21.20
2017-08-02T04:52:55.190Z,21.30
2017-08-02T04:55:23.270Z,21.20
2017-08-02T04:57:51.342Z,21.30
2017-08-02T05:00:19.443Z,21.20
2017-08-02T05:02:47.543Z,21.30
2017-08-02T05:05:15.606Z,21.20
2017-08-02T05:07:44.451Z,21.20
2017-08-02T05:10:12.522Z,21.20
2017-08-02T05:12:40.603Z,21.30
2017-08-02T05:15:08.671Z,21.30
2017-08-02T05:17:36.767Z,21.30
2017-08-02T05:20:04.830Z,21.30
2017-08-02T05:22:32.898Z,21.40
2017-08-02T05:25:00.966Z,21.40
2017-08-02T05:27:29.053Z,21.40
2017-08-02T05:29:57.127Z,21.40
2017-08-02T05:32:25.971Z,21.40
2017-08-02T05:34:54.064Z,21.40
2017-08-02T05:37:22.134Z,21.40
2017-08-02T05:39:50.210Z,21.30
2017-08-02T05:42:18.279Z,21.30
2017-08-02T05:44:46.363Z,21.40
2017-08-02T05:47:14.444Z,21.30
2017-08-02T05:49:42.522Z,21.30
2017-08-02T05:52:10.590Z,21.40
2017-08-02T05:54:38.671Z,21.40
2017-08-02T05:57:07.612Z,21.30
2017-08-02T05:59:35.686Z,21.30
2017-08-02T06:02:03.755Z,21.40
2017-08-02T06:04:31.827Z,21.40
2017-08-02T06:06:59.915Z,21.40
2017-08-02T06:09:28.014Z,21.40
2017-08-02T06:11:56.091Z,21.50
2017-08-02T06:14:24.155Z,21.50
2017-08-02T06:16:52.238Z,21.40
2017-08-02T06:19:20.303Z,21.50
2017-08-02T06:21:48.374Z,21.60
2017-08-02T06:24:16.447Z,21.60
2017-08-02T06:26:44.527Z,21.60
2017-08-02T06:29:12.591Z,21.60
2017-08-02T06:31:40.666Z,21.60
2017-08-02T06:34:08.734Z,21.60
2017-08-02T06:36:36.827Z,21.60
2017-08-02T06:39:05.663Z,21.60
2017-08-02T06:41:33.734Z,21.60
2017-08-02T06:44:01.836Z,21.70
2017-08-02T06:46:29.915Z,21.70
2017-08-02T06:48:57.987Z,21.70
2017-08-02T06:51:26.059Z,21.70
2017-08-02T06:53:54.142Z,21.70
2017-08-02T06:56:22.212Z,21.80
2017-08-02T06:58:50.311Z,21.80
2017-08-02T07:01:18.386Z,21.80
2017-08-02T07:03:46.454Z,21.90
2017-08-02T07:06:14.607Z,21.90
2017-08-02T07:08:42.699Z,21.90
2017-08-02T07:11:10.775Z,21.90
2017-08-02T07:13:38.928Z,21.90
2017-08-02T07:16:06.999Z,21.90
2017-08-02T07:18:35.070Z,21.90
2017-08-02T07:21:03.148Z,21.90
2017-08-02T07:23:31.215Z,22.00
2017-08-02T07:25:59.291Z,22.00
2017-08-02T07:28:28.237Z,22.10
2017-08-02T07:30:56.320Z,22.10
2017-08-02T07:33:24.392Z,22.10
2017-08-02T07:35:52.476Z,22.10
2017-08-02T07:38:20.543Z,22.10
2017-08-02T07:40:48.646Z,22.10
2017-08-02T07:43:17.483Z,22.30
2017-08-02T07:45:45.554Z,22.30
2017-08-02T07:48:13.703Z,22.40
2017-08-02T07:50:41.766Z,22.40
2017-08-02T07:53:10.607Z,22.50
2017-08-02T07:55:38.686Z,22.50
2017-08-02T07:58:06.763Z,22.50
2017-08-02T08:00:34.938Z,22.50
2017-08-02T08:03:03.014Z,22.60
2017-08-02T08:05:31.091Z,22.60
2017-08-02T08:07:59.177Z,22.60
2017-08-02T08:10:27.230Z,22.60
2017-08-02T08:12:55.307Z,22.60
2017-08-02T08:15:23.383Z,22.70
2017-08-02T08:17:51.454Z,22.90
2017-08-02T08:20:19.559Z,23.00
2017-08-02T08:22:47.622Z,23.10
2017-08-02T08:25:16.476Z,23.10
2017-08-02T08:27:44.546Z,23.10
2017-08-02T08:30:12.623Z,23.20
2017-08-02T08:32:40.707Z,23.20
2017-08-02T08:35:08.836Z,23.10
2017-08-02T08:37:48.137Z,23.20
2017-08-02T08:40:16.246Z,23.30
2017-08-02T08:42:44.364Z,23.30
2017-08-02T08:45:12.458Z,23.40
2017-08-02T08:47:43.588Z,23.50
2017-08-02T08:50:11.701Z,23.60
2017-08-02T08:52:39.864Z,23.70
2017-08-02T08:55:09.137Z,23.80
2017-08-02T08:57:37.241Z,23.70
2017-08-02T09:00:05.370Z,23.70
2017-08-02T09:02:36.101Z,23.80
2017-08-02T09:05:04.269Z,23.90
2017-08-02T09:07:32.400Z,23.90
2017-08-02T09:10:00.672Z,23.90
2017-08-02T09:12:28.811Z,24.00
2017-08-02T09:14:57.735Z,24.20
2017-08-02T09:17:25.994Z,24.20
2017-08-02T09:19:54.927Z,24.30
2017-08-02T09:22:25.288Z,24.30
2017-08-02T09:24:53.386Z,24.40
2017-08-02T09:27:21.547Z,24.50
2017-08-02T09:29:51.750Z,24.50
2017-08-02T09:32:19.910Z,24.50
2017-08-02T09:34:48.833Z,24.50
2017-08-02T09:37:16.981Z,24.50
2017-08-02T09:39:45.125Z,24.60
2017-08-02T09:42:13.337Z,24.60
2017-08-02T09:44:41.508Z,24.70
2017-08-02T09:47:09.622Z,24.60
2017-08-02T09:49:39.333Z,24.60
2017-08-02T09:52:08.224Z,24.60
2017-08-02T09:54:37.288Z,24.60
2017-08-02T09:57:05.460Z,24.70
2017-08-02T09:59:33.650Z,24.80
2017-08-02T10:02:03.359Z,24.80
2017-08-02T10:04:32.336Z,24.90
2017-08-02T10:07:00.563Z,24.90
2017-08-02T10:09:28.666Z,24.90
2017-08-02T10:11:56.856Z,25.00
2017-08-02T10:14:25.437Z,25.00
2017-08-02T10:16:53.542Z,25.10
2017-08-02T10:19:21.658Z,25.20
2017-08-02T10:21:49.828Z,25.20
2017-08-02T10:24:17.929Z,25.20
2017-08-02T10:26:46.011Z,25.20
2017-08-02T10:29:14.147Z,25.30
2017-08-02T10:31:42.253Z,25.30
2017-08-02T10:34:10.515Z,25.40
2017-08-02T10:36:38.662Z,25.40
2017-08-02T10:39:06.743Z,25.50
2017-08-02T10:41:34.901Z,25.60
2017-08-02T10:44:02.969Z,25.70
2017-08-02T10:46:31.064Z,25.70
2017-08-02T10:48:59.127Z,25.80
2017-08-02T10:51:27.191Z,25.90
2017-08-02T10:53:55.260Z,25.90
2017-08-02T10:56:24.114Z,25.90
2017-08-02T10:58:52.195Z,25.80
2017-08-02T11:01:30.304Z,25.90
2017-08-02T11:03:58.395Z,25.90
2017-08-02T11:06:26.457Z,25.90
2017-08-02T11:08:55.106Z,25.90
2017-08-02T11:11:23.172Z,25.90
2017-08-02T11:13:51.239Z,25.90
2017-08-02T11:16:19.338Z,25.90
2017-08-02T11:18:47.619Z,25.90
2017-08-02T11:21:15.687Z,26.00
2017-08-02T11:23:43.759Z,26.00
2017-08-02T11:26:12.415Z,26.00
2017-08-02T11:28:41.291Z,26.00
2017-08-02T11:31:09.358Z,26.00
2017-08-02T11:33:37.423Z,26.10
2017-08-02T11:36:05.502Z,26.10
2017-08-02T11:38:33.587Z,26.20
2017-08-02T11:41:01.667Z,26.20
2017-08-02T11:43:29.728Z,26.30
2017-08-02T11:45:57.794Z,26.30
2017-08-02T11:48:25.862Z,26.30
2017-08-02T11:50:53.934Z,26.30
2017-08-02T11:53:22.003Z,26.20
2017-08-02T11:55:50.111Z,26.20
2017-08-02T11:58:18.155Z,26.20
2017-08-02T12:00:46.218Z,26.30
2017-08-02T12:03:14.289Z,26.30
2017-08-02T12:05:43.219Z,26.30
2017-08-02T12:08:11.303Z,26.30
2017-08-02T12:10:39.371Z,26.40
2017-08-02T12:13:07.439Z,26.40
2017-08-02T12:15:35.508Z,26.50
2017-08-02T12:18:03.582Z,26.60
2017-08-02T12:20:31.717Z,26.50
2017-08-02T12:22:59.791Z,26.60
2017-08-02T12:25:27.863Z,26.60
2017-08-02T12:27:55.978Z,26.70
2017-08-02T12:30:24.052Z,26.70
2017-08-02T12:32:52.151Z,26.70
2017-08-02T12:35:20.232Z,26.70
2017-08-02T12:37:48.294Z,26.70
2017-08-02T12:40:16.365Z,26.70
2017-08-02T12:42:44.455Z,26.70
2017-08-02T12:45:12.531Z,26.80
2017-08-02T12:47:41.376Z,26.90
2017-08-02T12:50:09.479Z,26.90
2017-08-02T12:52:37.535Z,26.90
2017-08-02T12:55:05.608Z,27.00
2017-08-02T12:57:33.675Z,27.00
2017-08-02T13:00:01.747Z,27.00
2017-08-02T13:02:29.819Z,27.10
2017-08-02T13:04:57.912Z,27.20
2017-08-02T13:07:25.983Z,27.10
2017-08-02T13:09:54.054Z,27.20
2017-08-02T13:12:22.129Z,27.10
2017-08-02T13:14:50.204Z,27.10
2017-08-02T13:17:18.267Z,27.10
2017-08-02T13:19:46.338Z,27.20
2017-08-02T13:22:14.416Z,27.30
2017-08-02T13:24:42.483Z,27.50
2017-08-02T13:27:10.547Z,27.60
2017-08-02T13:29:38.610Z,27.60
2017-08-02T13:32:06.687Z,27.60
2017-08-02T13:34:34.759Z,27.60
2017-08-02T13:37:02.832Z,27.60
2017-08-02T13:39:30.902Z,27.70
2017-08-02T13:41:58.973Z,27.70
2017-08-02T13:44:27.046Z,27.80
2017-08-02T13:46:55.120Z,27.80
2017-08-02T13:49:23.192Z,27.90
2017-08-02T13:51:51.284Z,27.90
2017-08-02T13:54:19.478Z,27.90
2017-08-02T13:56:48.323Z,28.00
2017-08-02T13:59:16.406Z,27.90
2017-08-02T14:01:44.462Z,27.90
2017-08-02T14:04:12.549Z,28.00
2017-08-02T14:06:40.734Z,28.00
2017-08-02T14:09:08.845Z,28.00
2017-08-02T14:11:36.911Z,28.00
2017-08-02T14:14:05.743Z,28.10
2017-08-02T14:16:33.830Z,28.10
2017-08-02T14:19:01.949Z,28.20
2017-08-02T14:21:30.056Z,28.20
2017-08-02T14:23:58.123Z,28.30
2017-08-02T14:26:26.250Z,28.30
2017-08-02T14:28:54.315Z,28.30
2017-08-02T14:31:22.391Z,28.30
2017-08-02T14:33:50.542Z,28.40
2017-08-02T14:36:19.423Z,28.50
2017-08-02T14:38:47.504Z,28.50
2017-08-02T14:41:15.594Z,28.60
2017-08-02T14:43:43.666Z,28.60
2017-08-02T14:46:11.727Z,28.60
2017-08-02T14:48:39.811Z,28.70
2017-08-02T14:51:07.876Z,28.70
2017-08-02T14:53:35.966Z,28.70
2017-08-02T14:56:04.816Z,28.70
2017-08-02T14:58:32.911Z,28.70
2017-08-02T15:01:00.993Z,28.70
2017-08-02T15:03:29.094Z,28.70
2017-08-02T15:05:57.168Z,28.70
2017-08-02T15:08:25.244Z,28.70
2017-08-02T15:10:53.310Z,28.80
2017-08-02T15:13:21.386Z,28.80
2017-08-02T15:15:49.454Z,28.90
2017-08-02T15:18:18.304Z,28.90
2017-08-02T15:20:46.373Z,28.80
2017-08-02T15:23:14.442Z,28.80
2017-08-02T15:25:42.527Z,28.80
2017-08-02T15:28:10.592Z,28.80
2017-08-02T15:30:38.672Z,28.80
2017-08-02T15:33:06.743Z,28.80
2017-08-02T15:35:34.816Z,28.80
2017-08-02T15:38:02.879Z,28.70
2017-08-02T15:40:30.958Z,28.70
2017-08-02T15:42:59.033Z,28.60
2017-08-02T15:45:27.106Z,28.60
2017-08-02T15:47:55.187Z,28.60
2017-08-02T15:50:23.269Z,28.70
2017-08-02T15:52:51.338Z,28.70
2017-08-02T15:55:19.687Z,28.70
2017-08-02T15:57:47.774Z,28.70
2017-08-02T16:00:15.842Z,28.70
2017-08-02T16:02:43.956Z,28.70
2017-08-02T16:05:12.024Z,28.70
2017-08-02T16:07:40.108Z,28.70
2017-08-02T16:10:08.178Z,28.60
2017-08-02T16:12:36.250Z,28.70
2017-08-02T16:15:04.326Z,28.60
2017-08-02T16:17:32.402Z,28.60
2017-08-02T16:20:00.463Z,28.60
2017-08-02T16:22:28.543Z,28.50
2017-08-02T16:24:56.606Z,28.50
2017-08-02T16:27:24.678Z,28.50
2017-08-02T16:29:52.743Z,28.50
2017-08-02T16:32:21.567Z,28.60
2017-08-02T16:34:49.638Z,28.60
2017-08-02T16:37:17.693Z,28.60
2017-08-02T16:39:45.765Z,28.60
2017-08-02T16:42:13.827Z,28.60
2017-08-02T16:44:41.898Z,28.60
2017-08-02T16:47:09.963Z,28.50
2017-08-02T16:49:38.043Z,28.50
2017-08-02T16:52:06.118Z,28.50
2017-08-02T16:54:34.183Z,28.50
2017-08-02T16:57:03.026Z,28.50
2017-08-02T16:59:31.086Z,28.50
2017-08-02T17:01:59.151Z,28.50
2017-08-02T17:04:27.324Z,28.50
2017-08-02T17:06:55.399Z,28.50
2017-08-02T17:09:23.456Z,28.50
2017-08-02T17:11:51.533Z,28.50
2017-08-02T17:14:19.595Z,28.50
2017-08-02T17:16:47.681Z,28.50
2017-08-02T17:19:15.732Z,28.50
2017-08-02T17:21:43.828Z,28.50
2017-08-02T17:24:11.883Z,28.50
2017-08-02T17:26:39.974Z,28.40
2017-08-02T17:29:08.042Z,28.40
2017-08-02T17:31:36.126Z,28.40
2017-08-02T17:34:04.211Z,28.30
2017-08-02T17:36:32.283Z,28.40
2017-08-02T17:39:00.356Z,28.30
2017-08-02T17:41:28.419Z,28.30
2017-08-02T17:43:56.498Z,28.20
2017-08-02T17:46:24.563Z,28.20
2017-08-02T17:48:52.648Z,28.20
2017-08-02T17:51:20.715Z,28.20
2017-08-02T17:53:48.790Z,28.10
2017-08-02T17:56:16.850Z,28.10
2017-08-02T17:58:44.936Z,28.10
2017-08-02T18:01:13.004Z,28.10
2017-08-02T18:03:41.082Z,28.00
2017-08-02T18:06:09.152Z,28.00
2017-08-02T18:08:37.227Z,28.00
2017-08-02T18:11:05.298Z,27.90
2017-08-02T18:13:33.420Z,27.90
2017-08-02T18:16:01.479Z,27.90
2017-08-02T18:18:30.306Z,27.80
2017-08-02T18:20:58.379Z,27.80
2017-08-02T18:23:26.451Z,27.80
2017-08-02T18:25:54.583Z,27.80
2017-08-02T18:28:23.414Z,27.70
2017-08-02T18:30:51.534Z,27.70
2017-08-02T18:33:19.611Z,27.70
2017-08-02T18:35:47.675Z,27.60
2017-08-02T18:38:15.740Z,27.50
2017-08-02T18:40:43.807Z,27.50
2017-08-02T18:43:11.883Z,27.50
2017-08-02T18:45:39.945Z,27.40
2017-08-02T18:48:08.081Z,27.40
2017-08-02T18:50:36.143Z,27.40
2017-08-02T18:53:04.203Z,27.40
2017-08-02T18:55:32.283Z,27.30
2017-08-02T18:58:00.351Z,27.20
2017-08-02T19:00:28.413Z,27.10
2017-08-02T19:02:56.557Z,27.10
2017-08-02T19:05:24.628Z,27.00
2017-08-02T19:07:52.760Z,27.00
2017-08-02T19:10:20.819Z,26.90
2017-08-02T19:12:48.894Z,27.00
2017-08-02T19:15:17.032Z,26.90
2017-08-02T19:17:45.155Z,26.90
2017-08-02T19:20:13.215Z,26.80
2017-08-02T19:22:41.351Z,26.80
2017-08-02T19:25:09.476Z,26.70
2017-08-02T19:27:37.542Z,26.70
2017-08-02T19:30:05.603Z,26.60
2017-08-02T19:32:33.736Z,26.50
2017-08-02T19:35:01.898Z,26.50
2017-08-02T19:37:30.024Z,26.40
2017-08-02T19:39:58.863Z,26.30
2017-08-02T19:42:27.859Z,26.30
2017-08-02T19:44:55.991Z,26.30
2017-08-02T19:47:24.052Z,26.20
2017-08-02T19:49:52.138Z,26.20
2017-08-02T19:52:20.227Z,26.20
2017-08-02T19:54:48.303Z,26.10
2017-08-02T19:57:16.448Z,26.00
2017-08-02T19:59:45.325Z,25.90
2017-08-02T20:02:14.407Z,25.90
2017-08-02T20:04:42.527Z,25.90
2017-08-02T20:07:10.645Z,25.80
2017-08-02T20:09:38.762Z,25.70
2017-08-02T20:12:07.656Z,25.70
2017-08-02T20:14:35.753Z,25.70
2017-08-02T20:17:03.827Z,25.60
2017-08-02T20:19:31.915Z,25.60
2017-08-02T20:22:00.059Z,25.60
2017-08-02T20:24:28.136Z,25.50
2017-08-02T20:26:56.248Z,25.50
2017-08-02T20:29:24.319Z,25.50
2017-08-02T20:31:52.456Z,25.50
2017-08-02T20:34:20.526Z,25.50
2017-08-02T20:36:48.600Z,25.50
2017-08-02T20:39:16.691Z,25.50
2017-08-02T20:41:44.768Z,25.40
2017-08-02T20:44:12.840Z,25.30
2017-08-02T20:46:40.914Z,25.30
2017-08-02T20:49:09.049Z,25.30
2017-08-02T20:51:37.184Z,25.30
2017-08-02T20:54:05.239Z,25.20
2017-08-02T20:56:33.321Z,25.20
2017-08-02T20:59:01.428Z,25.10
2017-08-02T21:01:30.259Z,25.10
2017-08-02T21:03:58.377Z,25.10
2017-08-02T21:06:27.210Z,25.00
2017-08-02T21:08:55.365Z,25.00
2017-08-02T21:11:23.488Z,25.00
2017-08-02T21:13:51.553Z,24.90
2017-08-02T21:16:19.631Z,24.80
2017-08-02T21:18:47.786Z,24.70
2017-08-02T21:21:15.848Z,24.70
2017-08-02T21:23:44.005Z,24.60
2017-08-02T21:26:12.069Z,24.60
2017-08-02T21:28:40.155Z,24.60
2017-08-02T21:31:08.238Z,24.50
2017-08-02T21:33:36.315Z,24.40
2017-08-02T21:36:05.259Z,24.40
2017-08-02T21:38:34.115Z,24.20
2017-08-02T21:41:02.190Z,24.20
2017-08-02T21:43:30.262Z,24.20
2017-08-02T21:45:58.332Z,24.10
2017-08-02T21:48:26.403Z,24.10
2017-08-02T21:50:54.494Z,24.00
2017-08-02T21:53:22.562Z,24.00
2017-08-02T21:55:50.920Z,23.90
2017-08-02T21:58:19.005Z,23.90
2017-08-02T22:00:47.082Z,23.80
2017-08-02T22:03:15.159Z,23.70
2017-08-02T22:05:43.231Z,23.70
2017-08-02T22:08:11.304Z,23.70
2017-08-02T22:10:39.391Z,23.60
2017-08-02T22:13:08.227Z,23.50
2017-08-02T22:15:36.299Z,23.50
2017-08-02T22:18:04.379Z,23.50
2017-08-02T22:20:32.443Z,23.40
2017-08-02T22:23:00.566Z,23.40
2017-08-02T22:25:28.626Z,23.30
2017-08-02T22:27:56.702Z,23.30
2017-08-02T22:30:24.775Z,23.20
2017-08-02T22:32:52.855Z,23.20
2017-08-02T22:35:20.927Z,23.20
2017-08-02T22:37:49.053Z,23.20
2017-08-02T22:40:17.101Z,23.10
2017-08-02T22:42:45.172Z,23.10
2017-08-02T22:45:13.246Z,23.10
2017-08-02T22:47:41.310Z,23.10
2017-08-02T22:50:09.463Z,23.00
2017-08-02T22:52:37.537Z,23.00
2017-08-02T22:55:05.607Z,22.90
2017-08-02T22:57:33.684Z,22.90
2017-08-02T23:00:01.774Z,22.90
2017-08-02T23:02:29.846Z,22.90
2017-08-02T23:04:58.694Z,22.90
2017-08-02T23:07:26.757Z,22.80
2017-08-02T23:09:54.831Z,22.80
2017-08-02T23:12:22.911Z,22.80
2017-08-02T23:14:50.979Z,22.70
2017-08-02T23:17:19.051Z,22.70
2017-08-02T23:19:47.122Z,22.60
2017-08-02T23:22:15.195Z,22.60
2017-08-02T23:24:43.263Z,22.60
2017-08-02T23:27:11.349Z,22.50
2017-08-02T23:29:39.407Z,22.50
2017-08-02T23:32:07.479Z,22.40
2017-08-02T23:34:35.554Z,22.40
2017-08-02T23:37:03.626Z,22.40
2017-08-02T23:39:31.702Z,22.40
2017-08-02T23:41:59.766Z,22.30
2017-08-02T23:44:27.847Z,22.30
2017-08-02T23:46:55.906Z,22.20
2017-08-02T23:49:23.983Z,22.20
2017-08-02T23:51:52.050Z,22.20
2017-08-02T23:54:20.128Z,22.00
2017-08-02T23:56:48.199Z,22.00
2017-08-02T23:59:16.294Z,21.90
